KTRM/TRM METAR and TAF weather

Enter ICAO airport designator
Station Type Date Time Source
KTRM METAR 2020/07/04 01:52 UTC NOAA

KTRM 040152Z AUTO 16004KT 10SM CLR 39/08 A2973 RMK AO2 SLP072 T03940083


Station Type Date Time Source
KTRM Decoded METAR 2020/07/04 01:52 UTC NOAA

Palm Springs, Jacqueline Cochran Regional Airport, CA, United States (KTRM) 33-37-36N 116-09-34W
Jul 03, 2020 - 09:52 PM EDT / 2020.07.04 0152 UTC
Wind: from the SSE (160 degrees) at 5 MPH (4 KT):0
Visibility: 10 mile(s):0
Sky conditions: clear
Temperature: 102.9 F (39.4 C)
Dew Point: 46.9 F (8.3 C)
Relative Humidity: 15%
Pressure (altimeter): 29.73 in. Hg (1006 hPa)
ob: KTRM 040152Z AUTO 16004KT 10SM CLR 39/08 A2973 RMK AO2 SLP072 T03940083
cycle: 2

Station Type Date Time Source
KTRM TAF 2020/07/03 18:36 UTC NOAA

TAF KTRM 031732Z 0318/0418 VRB04KT P6SM SKC
FM032000 14010G17KT P6SM SKC
FM040400 33009KT P6SM SKC
FM041000 VRB05KT P6SM SKC

Example: see airport list